createdAt,value
2019-06-10T00:00:16.378Z,13.10
2019-06-10T00:02:43.953Z,13.10
2019-06-10T00:05:11.506Z,13.10
2019-06-10T00:07:40.958Z,13.10
2019-06-10T00:10:10.656Z,13.10
2019-06-10T00:12:37.738Z,13.10
2019-06-10T00:15:06.180Z,13.10
2019-06-10T00:17:47.808Z,13.10
2019-06-10T00:20:05.419Z,13.00
2019-06-10T00:22:33.942Z,13.10
2019-06-10T00:25:02.681Z,13.10
2019-06-10T00:27:31.175Z,13.10
2019-06-10T00:30:00.602Z,13.00
2019-06-10T00:32:28.271Z,13.10
2019-06-10T00:34:55.685Z,13.10
2019-06-10T00:37:23.121Z,13.10
2019-06-10T00:39:51.243Z,13.10
2019-06-10T00:42:21.387Z,13.10
2019-06-10T00:44:48.219Z,13.10
2019-06-10T00:47:15.693Z,13.00
2019-06-10T00:49:43.065Z,13.00
2019-06-10T00:52:12.201Z,13.00
2019-06-10T00:54:41.757Z,13.00
2019-06-10T00:57:09.899Z,13.00
2019-06-10T00:59:38.363Z,13.10
2019-06-10T01:02:06.527Z,13.10
2019-06-10T01:04:34.062Z,13.10
2019-06-10T01:07:02.492Z,13.10
2019-06-10T01:09:31.099Z,13.10
2019-06-10T01:12:01.046Z,13.10
2019-06-10T01:14:28.130Z,13.10
2019-06-10T01:16:55.596Z,13.10
2019-06-10T01:19:23.137Z,13.10
2019-06-10T01:21:51.189Z,13.10
2019-06-10T01:24:19.174Z,13.10
2019-06-10T01:26:46.634Z,13.10
2019-06-10T01:29:15.613Z,13.10
2019-06-10T01:31:43.028Z,13.10
2019-06-10T01:34:12.399Z,13.10
2019-06-10T01:36:40.601Z,13.10
2019-06-10T01:39:09.630Z,13.20
2019-06-10T01:41:37.349Z,13.10
2019-06-10T01:44:04.716Z,13.10
2019-06-10T01:46:32.159Z,13.10
2019-06-10T01:49:00.776Z,13.10
2019-06-10T01:51:28.462Z,13.10
2019-06-10T01:53:56.101Z,13.20
2019-06-10T01:56:23.514Z,13.30
2019-06-10T01:58:51.502Z,13.30
2019-06-10T02:01:26.138Z,13.30
2019-06-10T02:03:53.646Z,13.30
2019-06-10T02:06:25.316Z,13.40
2019-06-10T02:08:53.469Z,13.30
2019-06-10T02:11:23.487Z,13.30
2019-06-10T02:13:51.537Z,13.30
2019-06-10T02:16:23.397Z,13.40
2019-06-10T02:19:00.335Z,13.50
2019-06-10T02:21:24.281Z,13.60
2019-06-10T02:23:52.082Z,13.60
2019-06-10T02:26:21.997Z,13.70
2019-06-10T02:28:50.881Z,13.80
2019-06-10T02:31:24.538Z,13.90
2019-06-10T02:33:47.714Z,13.80
2019-06-10T02:36:18.196Z,13.80
2019-06-10T02:38:44.601Z,13.80
2019-06-10T02:41:16.333Z,13.70
2019-06-10T02:43:53.355Z,13.80
2019-06-10T02:46:30.822Z,13.80
2019-06-10T02:48:54.442Z,13.80
2019-06-10T02:51:24.738Z,13.80
2019-06-10T02:53:53.536Z,13.90
2019-06-10T02:56:21.746Z,14.00
2019-06-10T02:58:49.197Z,14.10
2019-06-10T03:01:18.845Z,14.20
2019-06-10T03:03:49.601Z,14.40
2019-06-10T03:06:17.922Z,14.70
2019-06-10T03:08:45.349Z,15.00
2019-06-10T03:11:16.407Z,15.20
2019-06-10T03:13:42.621Z,15.10
2019-06-10T03:16:19.854Z,15.30
2019-06-10T03:18:47.902Z,15.40
2019-06-10T03:21:15.989Z,15.40
2019-06-10T03:23:43.630Z,15.60
2019-06-10T03:26:12.367Z,15.90
2019-06-10T03:28:42.572Z,16.40
2019-06-10T03:31:09.318Z,16.60
2019-06-10T03:33:41.622Z,16.80
2019-06-10T03:36:05.906Z,17.10
2019-06-10T03:38:33.345Z,17.90
2019-06-10T03:41:03.004Z,18.60
2019-06-10T03:43:32.603Z,19.40
2019-06-10T03:45:59.389Z,20.20
2019-06-10T03:48:28.354Z,20.70
2019-06-10T03:50:56.120Z,21.30
2019-06-10T03:53:25.446Z,21.50
2019-06-10T03:55:52.961Z,21.60
2019-06-10T03:58:22.046Z,22.00
2019-06-10T04:00:52.092Z,22.10
2019-06-10T04:03:19.362Z,22.30
2019-06-10T04:05:46.865Z,22.60
2019-06-10T04:08:14.375Z,22.80
2019-06-10T04:10:42.990Z,23.30
2019-06-10T04:13:13.064Z,23.60
2019-06-10T04:15:42.893Z,23.90
2019-06-10T04:18:09.245Z,23.40
2019-06-10T04:20:36.704Z,23.60
2019-06-10T04:23:04.165Z,22.90
2019-06-10T04:25:32.388Z,23.00
2019-06-10T04:28:00.268Z,23.00
2019-06-10T04:30:29.174Z,22.90
2019-06-10T04:32:57.013Z,23.20
2019-06-10T04:35:25.938Z,23.20
2019-06-10T04:37:53.681Z,23.20
2019-06-10T04:40:23.492Z,23.20
2019-06-10T04:42:52.412Z,23.80
2019-06-10T04:45:21.205Z,23.60
2019-06-10T04:47:49.144Z,23.70
2019-06-10T04:50:24.801Z,23.50
2019-06-10T04:52:46.217Z,22.90
2019-06-10T04:55:13.644Z,22.90
2019-06-10T04:57:43.055Z,23.10
2019-06-10T05:00:13.832Z,23.20
2019-06-10T05:02:39.846Z,22.70
2019-06-10T05:05:07.524Z,22.90
2019-06-10T05:07:37.031Z,23.30
2019-06-10T05:10:05.030Z,23.50
2019-06-10T05:12:33.276Z,23.70
2019-06-10T05:15:03.278Z,23.60
2019-06-10T05:17:31.798Z,24.00
2019-06-10T05:19:59.340Z,24.00
2019-06-10T05:22:27.268Z,24.20
2019-06-10T05:24:56.032Z,23.90
2019-06-10T05:27:25.355Z,23.90
2019-06-10T05:29:52.819Z,24.10
2019-06-10T05:32:22.793Z,23.60
2019-06-10T05:34:49.589Z,23.30
2019-06-10T05:37:17.017Z,22.90
2019-06-10T05:39:44.597Z,22.70
2019-06-10T05:42:12.805Z,22.60
2019-06-10T05:44:42.937Z,22.20
2019-06-10T05:47:12.257Z,22.10
2019-06-10T05:49:39.450Z,21.80
2019-06-10T05:52:07.260Z,21.70
2019-06-10T05:54:35.535Z,21.40
2019-06-10T05:57:03.464Z,21.10
2019-06-10T05:59:31.569Z,20.70
2019-06-10T06:02:02.227Z,20.00
2019-06-10T06:04:30.557Z,19.50
2019-06-10T06:06:58.683Z,19.30
2019-06-10T06:09:27.154Z,19.40
2019-06-10T06:11:54.618Z,19.30
2019-06-10T06:14:22.661Z,19.30
2019-06-10T06:16:53.173Z,19.40
2019-06-10T06:19:19.801Z,19.10
2019-06-10T06:21:47.977Z,18.90
2019-06-10T06:24:15.729Z,18.70
2019-06-10T06:26:43.527Z,18.70
2019-06-10T06:29:13.037Z,18.90
2019-06-10T06:31:42.830Z,19.20
2019-06-10T06:34:10.021Z,19.20
2019-06-10T06:36:38.341Z,19.30
2019-06-10T06:39:07.141Z,19.40
2019-06-10T06:41:36.877Z,19.60
2019-06-10T06:44:04.370Z,19.60
2019-06-10T06:46:34.510Z,19.70
2019-06-10T06:49:02.141Z,19.80
2019-06-10T06:51:40.071Z,19.60
2019-06-10T06:53:59.258Z,19.40
2019-06-10T06:56:26.739Z,19.00
2019-06-10T06:58:54.200Z,18.70
2019-06-10T07:01:25.516Z,18.60
2019-06-10T07:03:53.556Z,18.40
2019-06-10T07:06:22.904Z,18.50
2019-06-10T07:09:03.393Z,18.60
2019-06-10T07:11:22.399Z,18.50
2019-06-10T07:13:53.501Z,18.30
2019-06-10T07:16:23.006Z,18.40
2019-06-10T07:18:50.734Z,18.40
2019-06-10T07:21:19.639Z,18.30
2019-06-10T07:23:47.194Z,18.50
2019-06-10T07:26:14.628Z,18.70
2019-06-10T07:28:45.683Z,18.90
2019-06-10T07:31:20.876Z,19.10
2019-06-10T07:33:44.754Z,19.10
2019-06-10T07:36:12.943Z,19.30
2019-06-10T07:38:41.859Z,19.50
2019-06-10T07:41:08.478Z,19.40
2019-06-10T07:43:39.598Z,19.60
2019-06-10T07:46:05.246Z,19.80
2019-06-10T07:48:34.477Z,20.20
2019-06-10T07:51:02.755Z,20.30
2019-06-10T07:53:33.212Z,20.40
2019-06-10T07:55:59.933Z,20.20
2019-06-10T07:58:27.531Z,20.00
2019-06-10T08:00:54.970Z,19.90
2019-06-10T08:03:22.565Z,19.90
2019-06-10T08:05:52.554Z,19.90
2019-06-10T08:08:20.299Z,19.80
2019-06-10T08:10:48.180Z,19.90
2019-06-10T08:13:16.000Z,19.80
2019-06-10T08:15:46.018Z,19.70
2019-06-10T08:18:13.200Z,19.70
2019-06-10T08:20:47.724Z,19.80
2019-06-10T08:23:16.361Z,19.80
2019-06-10T08:25:52.182Z,19.70
2019-06-10T08:28:14.357Z,19.70
2019-06-10T08:30:43.122Z,19.60
2019-06-10T08:33:13.723Z,19.60
2019-06-10T08:35:48.350Z,19.70
2019-06-10T08:38:12.433Z,19.80
2019-06-10T08:40:40.658Z,19.80
2019-06-10T08:43:09.821Z,19.90
2019-06-10T08:45:37.370Z,20.00
2019-06-10T08:48:05.065Z,20.10
2019-06-10T08:50:33.765Z,19.90
2019-06-10T08:53:13.977Z,20.00
2019-06-10T08:55:33.340Z,20.10
2019-06-10T08:58:02.872Z,20.10
2019-06-10T09:00:30.092Z,20.00
2019-06-10T09:02:57.565Z,20.00
2019-06-10T09:05:25.092Z,19.80
2019-06-10T09:07:54.506Z,19.70
2019-06-10T09:10:22.675Z,19.60
2019-06-10T09:12:54.151Z,19.70
2019-06-10T09:15:19.884Z,19.60
2019-06-10T09:17:49.630Z,19.70
2019-06-10T09:20:22.784Z,19.60
2019-06-10T09:23:10.864Z,19.70
2019-06-10T09:25:18.674Z,19.40
2019-06-10T09:27:49.324Z,19.30
2019-06-10T09:30:16.441Z,19.00
2019-06-10T09:32:48.527Z,18.90
2019-06-10T09:35:13.698Z,18.50
2019-06-10T09:37:42.666Z,18.50
2019-06-10T09:40:12.573Z,18.60
2019-06-10T09:42:43.596Z,18.70
2019-06-10T09:45:12.815Z,18.80
2019-06-10T09:47:44.498Z,18.90
2019-06-10T09:50:12.262Z,19.00
2019-06-10T09:52:42.147Z,19.10
2019-06-10T09:55:12.878Z,19.10
2019-06-10T09:57:43.712Z,19.20
2019-06-10T10:00:12.518Z,19.10
2019-06-10T10:02:44.511Z,19.30
2019-06-10T10:05:09.593Z,19.40
2019-06-10T10:07:37.697Z,19.40
2019-06-10T10:10:06.457Z,19.60
2019-06-10T10:12:34.056Z,19.90
2019-06-10T10:15:22.107Z,20.00
2019-06-10T10:17:33.386Z,19.90
2019-06-10T10:20:03.172Z,20.10
2019-06-10T10:22:30.356Z,20.40
2019-06-10T10:24:57.838Z,20.60
2019-06-10T10:27:25.337Z,20.60
2019-06-10T10:29:57.040Z,20.50
2019-06-10T10:32:23.180Z,20.40
2019-06-10T10:34:52.513Z,20.40
2019-06-10T10:37:22.739Z,20.30
2019-06-10T10:39:53.268Z,20.30
2019-06-10T10:42:19.060Z,20.20
2019-06-10T10:44:49.998Z,20.10
2019-06-10T10:47:15.974Z,20.20
2019-06-10T10:49:45.505Z,20.20
2019-06-10T10:52:13.063Z,20.00
2019-06-10T10:54:42.693Z,19.90
2019-06-10T10:57:09.776Z,19.90
2019-06-10T10:59:37.317Z,19.90
2019-06-10T11:02:04.978Z,20.10
2019-06-10T11:04:32.998Z,19.90
2019-06-10T11:07:01.841Z,19.90
2019-06-10T11:09:36.215Z,20.10
2019-06-10T11:12:03.755Z,20.20
2019-06-10T11:14:34.093Z,20.30
2019-06-10T11:17:02.910Z,20.40
2019-06-10T11:19:32.407Z,20.60
2019-06-10T11:22:02.774Z,20.80
2019-06-10T11:24:37.826Z,21.10
2019-06-10T11:27:03.125Z,21.40
2019-06-10T11:29:32.883Z,21.70
2019-06-10T11:32:03.209Z,21.50
2019-06-10T11:34:33.249Z,21.20
2019-06-10T11:37:02.280Z,21.30
2019-06-10T11:39:30.187Z,21.60
2019-06-10T11:41:57.847Z,21.60
2019-06-10T11:44:27.221Z,21.50
2019-06-10T11:46:59.493Z,21.30
2019-06-10T11:49:24.734Z,21.10
2019-06-10T11:51:54.286Z,21.10
2019-06-10T11:54:24.262Z,21.40
2019-06-10T11:56:56.808Z,21.60
2019-06-10T11:59:24.370Z,21.80
2019-06-10T12:01:56.874Z,21.60
2019-06-10T12:04:23.901Z,21.60
2019-06-10T12:06:52.758Z,21.50
2019-06-10T12:09:22.952Z,21.50
2019-06-10T12:11:58.431Z,21.60
2019-06-10T12:14:26.832Z,21.70
2019-06-10T12:19:23.462Z,21.90
2019-06-10T12:21:56.481Z,22.00
2019-06-10T12:24:23.138Z,21.90
2019-06-10T12:26:55.245Z,22.00
2019-06-10T12:29:22.553Z,21.80
2019-06-10T12:32:01.227Z,21.90
2019-06-10T12:34:25.611Z,22.00
2019-06-10T12:36:56.294Z,21.80
2019-06-10T12:39:23.081Z,21.80
2019-06-10T12:41:54.648Z,21.90
2019-06-10T12:44:22.816Z,22.00
2019-06-10T12:46:53.317Z,22.10
2019-06-10T12:49:19.428Z,22.20
2019-06-10T12:51:46.915Z,22.10
2019-06-10T12:54:14.667Z,22.00
2019-06-10T12:56:42.979Z,22.00
2019-06-10T12:59:13.260Z,21.80
2019-06-10T13:01:40.334Z,22.00
2019-06-10T13:04:09.549Z,21.80
2019-06-10T13:06:39.977Z,21.80
2019-06-10T13:09:08.079Z,21.70
2019-06-10T13:11:35.935Z,21.70
2019-06-10T13:14:06.445Z,22.00
2019-06-10T13:16:33.065Z,22.20
2019-06-10T13:19:03.278Z,22.20
2019-06-10T13:21:30.244Z,22.20
2019-06-10T13:24:02.530Z,22.30
2019-06-10T13:26:35.214Z,22.30
2019-06-10T13:29:06.532Z,22.20
2019-06-10T13:31:33.698Z,22.30
2019-06-10T13:34:05.439Z,22.40
2019-06-10T13:36:33.124Z,22.60
2019-06-10T13:39:13.461Z,22.60
2019-06-10T13:41:44.123Z,22.60
2019-06-10T13:44:22.795Z,22.60
2019-06-10T13:46:52.606Z,22.70
2019-06-10T13:49:22.761Z,22.50
2019-06-10T13:51:49.609Z,22.50
2019-06-10T13:54:17.665Z,22.60
2019-06-10T13:56:47.679Z,22.60
2019-06-10T13:59:15.521Z,22.60
2019-06-10T14:01:43.085Z,22.80
2019-06-10T14:04:20.454Z,22.70
2019-06-10T14:06:49.011Z,22.70
2019-06-10T14:09:15.665Z,22.70
2019-06-10T14:11:50.459Z,22.70
2019-06-10T14:14:35.133Z,22.90
2019-06-10T14:17:05.657Z,22.80
2019-06-10T14:19:36.032Z,22.90
2019-06-10T14:22:05.899Z,23.10
2019-06-10T14:24:33.707Z,23.10
2019-06-10T14:27:07.180Z,23.20
2019-06-10T14:29:42.142Z,23.50
2019-06-10T14:32:14.422Z,23.30
2019-06-10T14:34:54.544Z,23.30
2019-06-10T14:37:33.088Z,23.30
2019-06-10T14:39:52.974Z,23.20
2019-06-10T14:42:23.262Z,23.20
2019-06-10T14:44:52.763Z,23.20
2019-06-10T14:47:25.697Z,23.30
2019-06-10T14:50:06.790Z,23.20
2019-06-10T14:52:42.696Z,23.30
2019-06-10T14:55:09.339Z,23.10
2019-06-10T14:57:36.952Z,22.80
2019-06-10T15:00:05.660Z,22.60
2019-06-10T15:02:53.764Z,22.80
2019-06-10T15:05:23.239Z,22.80
2019-06-10T15:07:54.729Z,22.70
2019-06-10T15:10:23.308Z,22.70
2019-06-10T15:13:03.452Z,22.50
2019-06-10T15:15:32.920Z,22.60
2019-06-10T15:18:02.789Z,22.70
2019-06-10T15:20:32.942Z,22.60
2019-06-10T15:23:01.203Z,22.60
2019-06-10T15:25:28.838Z,22.40
2019-06-10T15:27:59.155Z,22.40
2019-06-10T15:30:30.468Z,22.60
2019-06-10T15:32:56.062Z,22.80
2019-06-10T15:35:24.538Z,22.70
2019-06-10T15:37:52.828Z,22.70
2019-06-10T15:40:23.071Z,23.00
2019-06-10T15:42:53.112Z,23.00
2019-06-10T15:45:21.156Z,23.00
2019-06-10T15:47:49.304Z,23.00
2019-06-10T15:50:17.299Z,22.90
2019-06-10T15:52:46.248Z,22.80
2019-06-10T15:55:33.336Z,22.80
2019-06-10T15:57:46.346Z,22.70
2019-06-10T16:00:17.700Z,22.80
2019-06-10T16:02:42.162Z,22.70
2019-06-10T16:05:13.851Z,22.70
2019-06-10T16:07:42.223Z,22.70
2019-06-10T16:10:09.787Z,22.80
2019-06-10T16:12:37.341Z,22.90
2019-06-10T16:15:04.993Z,22.80
2019-06-10T16:17:33.245Z,22.80
2019-06-10T16:20:03.635Z,22.90
2019-06-10T16:22:30.226Z,22.90
2019-06-10T16:24:58.040Z,22.90
2019-06-10T16:27:43.552Z,22.70
2019-06-10T16:29:56.467Z,22.70
2019-06-10T16:32:26.444Z,22.60
2019-06-10T16:34:56.009Z,22.70
2019-06-10T16:37:25.349Z,22.80
2019-06-10T16:39:52.876Z,22.60
2019-06-10T16:42:22.957Z,22.80
2019-06-10T16:44:49.888Z,22.90
2019-06-10T16:47:25.813Z,23.00
2019-06-10T16:49:53.147Z,23.10
2019-06-10T16:52:22.949Z,23.10
2019-06-10T16:54:52.500Z,23.10
2019-06-10T16:57:19.768Z,23.00
2019-06-10T16:59:47.321Z,23.10
2019-06-10T17:02:14.838Z,23.10
2019-06-10T17:04:43.514Z,23.20
2019-06-10T17:07:12.622Z,23.20
2019-06-10T17:09:42.197Z,23.20
2019-06-10T17:12:09.613Z,23.10
2019-06-10T17:14:37.193Z,23.10
2019-06-10T17:17:04.673Z,23.20
2019-06-10T17:19:33.403Z,23.30
2019-06-10T17:22:01.164Z,23.30
2019-06-10T17:24:29.441Z,23.40
2019-06-10T17:26:58.121Z,23.60
2019-06-10T17:29:27.221Z,23.60
2019-06-10T17:31:55.030Z,23.80
2019-06-10T17:34:24.580Z,23.90
2019-06-10T17:36:53.858Z,24.00
2019-06-10T17:39:23.358Z,23.90
2019-06-10T17:41:50.615Z,23.90
2019-06-10T17:44:18.006Z,24.10
2019-06-10T17:46:45.586Z,24.40
2019-06-10T17:49:13.178Z,24.60
2019-06-10T17:51:43.112Z,24.60
2019-06-10T17:54:10.182Z,24.60
2019-06-10T17:56:37.732Z,24.80
2019-06-10T17:59:05.731Z,24.80
2019-06-10T18:01:35.740Z,24.70
2019-06-10T18:04:03.463Z,24.60
2019-06-10T18:06:32.059Z,24.50
2019-06-10T18:09:00.955Z,24.40
2019-06-10T18:11:28.452Z,24.20
2019-06-10T18:13:56.170Z,24.00
2019-06-10T18:16:28.229Z,23.60
2019-06-10T18:18:55.789Z,23.20
2019-06-10T18:21:24.360Z,22.60
2019-06-10T18:23:52.926Z,22.20
2019-06-10T18:26:22.942Z,22.00
2019-06-10T18:29:02.046Z,21.80
2019-06-10T18:31:23.357Z,21.70
2019-06-10T18:33:52.927Z,21.50
2019-06-10T18:36:24.148Z,21.40
2019-06-10T18:38:49.640Z,21.40
2019-06-10T18:41:17.139Z,21.30
2019-06-10T18:43:44.558Z,21.30
2019-06-10T18:46:12.746Z,21.30
2019-06-10T18:48:42.921Z,21.20
2019-06-10T18:51:12.486Z,21.10
2019-06-10T18:53:42.539Z,21.10
2019-06-10T18:56:09.849Z,21.00
2019-06-10T18:58:39.043Z,20.90
2019-06-10T19:01:07.985Z,20.80
2019-06-10T19:03:36.684Z,20.70
2019-06-10T19:06:04.722Z,20.80
2019-06-10T19:08:35.546Z,20.80
2019-06-10T19:11:02.420Z,20.60
2019-06-10T19:13:31.929Z,20.60
2019-06-10T19:16:02.170Z,20.60
2019-06-10T19:18:29.868Z,20.60
2019-06-10T19:20:57.422Z,20.50
2019-06-10T19:23:24.894Z,20.50
2019-06-10T19:25:52.775Z,20.50
2019-06-10T19:28:22.919Z,20.50
2019-06-10T19:30:53.076Z,20.60
2019-06-10T19:33:19.957Z,20.60
2019-06-10T19:35:47.601Z,20.50
2019-06-10T19:38:16.113Z,20.50
2019-06-10T19:40:44.100Z,20.50
2019-06-10T19:43:12.369Z,20.40
2019-06-10T19:45:42.553Z,20.30
2019-06-10T19:48:12.451Z,20.20
2019-06-10T19:50:44.017Z,20.10
2019-06-10T19:53:13.079Z,20.00
2019-06-10T19:55:47.374Z,19.80
2019-06-10T19:58:14.905Z,19.70
2019-06-10T20:00:50.250Z,19.50
2019-06-10T20:03:12.006Z,19.40
2019-06-10T20:05:40.031Z,19.20
2019-06-10T20:08:08.389Z,19.10
2019-06-10T20:10:36.154Z,18.90
2019-06-10T20:13:09.958Z,18.50
2019-06-10T20:15:37.537Z,18.50
2019-06-10T20:18:06.311Z,18.30
2019-06-10T20:20:33.751Z,18.20
2019-06-10T20:23:03.166Z,18.00
2019-06-10T20:25:32.770Z,17.80
2019-06-10T20:28:00.077Z,17.70
2019-06-10T20:30:29.165Z,17.50
2019-06-10T20:32:56.951Z,17.40
2019-06-10T20:35:24.448Z,17.30
2019-06-10T20:37:53.827Z,17.10
2019-06-10T20:40:22.708Z,17.10
2019-06-10T20:42:50.542Z,16.90
2019-06-10T20:45:18.590Z,16.80
2019-06-10T20:47:47.962Z,16.70
2019-06-10T20:50:15.735Z,16.70
2019-06-10T20:52:44.757Z,16.60
2019-06-10T20:55:12.826Z,16.60
2019-06-10T20:57:52.105Z,16.40
2019-06-10T21:00:19.658Z,16.30
2019-06-10T21:02:40.936Z,16.20
2019-06-10T21:05:10.422Z,16.10
2019-06-10T21:07:39.225Z,16.00
2019-06-10T21:10:10.019Z,15.90
2019-06-10T21:12:37.570Z,15.80
2019-06-10T21:15:06.597Z,15.80
2019-06-10T21:17:34.040Z,15.60
2019-06-10T21:20:03.410Z,15.60
2019-06-10T21:22:32.529Z,15.50
2019-06-10T21:25:02.201Z,15.40
2019-06-10T21:27:29.262Z,15.20
2019-06-10T21:29:56.802Z,15.10
2019-06-10T21:32:24.194Z,15.00
2019-06-10T21:34:53.735Z,15.00
2019-06-10T21:37:22.679Z,14.90
2019-06-10T21:39:51.708Z,14.90
2019-06-10T21:42:19.836Z,14.80
2019-06-10T21:44:47.988Z,14.80
2019-06-10T21:47:15.533Z,14.80
2019-06-10T21:49:44.286Z,14.70
2019-06-10T21:52:12.985Z,14.60
2019-06-10T21:54:42.551Z,14.50
2019-06-10T21:57:09.971Z,14.50
2019-06-10T21:59:37.494Z,14.40
2019-06-10T22:02:05.517Z,14.20
2019-06-10T22:04:33.074Z,14.20
2019-06-10T22:07:03.001Z,14.20
2019-06-10T22:09:29.767Z,14.20
2019-06-10T22:11:57.289Z,14.10
2019-06-10T22:14:25.054Z,14.20
2019-06-10T22:16:53.373Z,14.10
2019-06-10T22:19:23.122Z,14.00
2019-06-10T22:21:53.195Z,14.00
2019-06-10T22:24:22.800Z,13.90
2019-06-10T22:26:50.995Z,13.90
2019-06-10T22:29:19.864Z,13.80
2019-06-10T22:31:47.302Z,13.70
2019-06-10T22:34:14.765Z,13.70
2019-06-10T22:36:42.461Z,13.80
2019-06-10T22:39:12.330Z,13.60
2019-06-10T22:41:39.101Z,13.60
2019-06-10T22:44:06.566Z,13.50
2019-06-10T22:46:34.089Z,13.50
2019-06-10T22:49:07.317Z,13.50
2019-06-10T22:51:34.821Z,13.40
2019-06-10T22:54:03.506Z,13.30
2019-06-10T22:56:31.605Z,13.30
2019-06-10T22:59:00.268Z,13.20
2019-06-10T23:01:34.429Z,13.20
2019-06-10T23:03:57.552Z,13.10
2019-06-10T23:06:24.997Z,13.10
2019-06-10T23:08:54.712Z,13.00
2019-06-10T23:11:23.945Z,13.00
2019-06-10T23:13:53.350Z,12.90
2019-06-10T23:16:22.231Z,12.80
2019-06-10T23:18:50.949Z,12.80
2019-06-10T23:21:19.169Z,12.70
2019-06-10T23:23:46.599Z,12.60
2019-06-10T23:26:14.151Z,12.60
2019-06-10T23:28:42.114Z,12.50
2019-06-10T23:31:12.749Z,12.50
2019-06-10T23:33:50.139Z,12.50
2019-06-10T23:36:17.865Z,12.40
2019-06-10T23:38:45.309Z,12.30
2019-06-10T23:41:13.055Z,12.30
2019-06-10T23:43:42.333Z,12.20
2019-06-10T23:46:11.989Z,12.20
2019-06-10T23:48:42.367Z,12.10
2019-06-10T23:51:11.998Z,12.10
2019-06-10T23:53:39.400Z,12.00
2019-06-10T23:56:07.178Z,12.00
2019-06-10T23:58:34.622Z,12.00
